sensor_id;sensor_type;location;lat;lon;timestamp;temperature;humidity
41256;DHT22;26989;45.524;10.938;2022-12-13T00:01:49;0.50;99.90
41256;DHT22;26989;45.524;10.938;2022-12-13T00:04:19;0.30;99.90
41256;DHT22;26989;45.524;10.938;2022-12-13T00:06:48;0.10;99.90
41256;DHT22;26989;45.524;10.938;2022-12-13T00:09:16;-0.10;99.90
41256;DHT22;26989;45.524;10.938;2022-12-13T00:11:44;-0.20;99.90
41256;DHT22;26989;45.524;10.938;2022-12-13T00:14:12;-0.10;99.90
41256;DHT22;26989;45.524;10.938;2022-12-13T00:16:42;0.10;99.90
41256;DHT22;26989;45.524;10.938;2022-12-13T00:19:11;1.60;99.90
41256;DHT22;26989;45.524;10.938;2022-12-13T00:21:38;2.20;99.90
41256;DHT22;26989;45.524;10.938;2022-12-13T00:24:06;2.50;99.90
41256;DHT22;26989;45.524;10.938;2022-12-13T00:26:33;2.80;99.90
41256;DHT22;26989;45.524;10.938;2022-12-13T00:29:02;2.80;99.90
41256;DHT22;26989;45.524;10.938;2022-12-13T00:31:30;2.70;99.90
41256;DHT22;26989;45.524;10.938;2022-12-13T00:34:19;2.70;99.90
41256;DHT22;26989;45.524;10.938;2022-12-13T00:36:47;2.70;99.90
41256;DHT22;26989;45.524;10.938;2022-12-13T00:39:14;2.80;99.90
41256;DHT22;26989;45.524;10.938;2022-12-13T00:41:42;2.90;99.90
41256;DHT22;26989;45.524;10.938;2022-12-13T00:44:11;3.00;99.90
41256;DHT22;26989;45.524;10.938;2022-12-13T00:46:39;2.70;99.90
41256;DHT22;26989;45.524;10.938;2022-12-13T00:49:08;1.80;99.90
41256;DHT22;26989;45.524;10.938;2022-12-13T00:51:35;1.20;99.90
41256;DHT22;26989;45.524;10.938;2022-12-13T00:54:02;0.90;99.90
41256;DHT22;26989;45.524;10.938;2022-12-13T00:56:30;0.70;99.90
41256;DHT22;26989;45.524;10.938;2022-12-13T00:58:58;0.70;99.90
41256;DHT22;26989;45.524;10.938;2022-12-13T01:01:27;0.60;99.90
41256;DHT22;26989;45.524;10.938;2022-12-13T01:03:56;0.60;99.90
41256;DHT22;26989;45.524;10.938;2022-12-13T01:09:03;0.60;99.90
41256;DHT22;26989;45.524;10.938;2022-12-13T01:11:31;0.40;99.90
41256;DHT22;26989;45.524;10.938;2022-12-13T01:13:58;0.40;99.90
41256;DHT22;26989;45.524;10.938;2022-12-13T01:16:25;0.30;99.90
41256;DHT22;26989;45.524;10.938;2022-12-13T01:18:52;0.30;99.90
41256;DHT22;26989;45.524;10.938;2022-12-13T01:21:19;0.30;99.90
41256;DHT22;26989;45.524;10.938;2022-12-13T01:23:49;0.10;99.90
41256;DHT22;26989;45.524;10.938;2022-12-13T01:26:18;0.10;99.90
41256;DHT22;26989;45.524;10.938;2022-12-13T01:28:46;-0.10;99.90
41256;DHT22;26989;45.524;10.938;2022-12-13T01:31:16;-0.20;99.90
41256;DHT22;26989;45.524;10.938;2022-12-13T01:33:43;-0.10;99.90
41256;DHT22;26989;45.524;10.938;2022-12-13T01:36:14;-0.10;99.90
41256;DHT22;26989;45.524;10.938;2022-12-13T01:38:41;-0.10;99.90
41256;DHT22;26989;45.524;10.938;2022-12-13T01:41:19;-0.10;99.90
41256;DHT22;26989;45.524;10.938;2022-12-13T01:44:04;0.00;99.90
41256;DHT22;26989;45.524;10.938;2022-12-13T01:46:34;0.10;99.90
41256;DHT22;26989;45.524;10.938;2022-12-13T01:49:10;0.10;99.90
41256;DHT22;26989;45.524;10.938;2022-12-13T01:51:55;0.10;99.90
41256;DHT22;26989;45.524;10.938;2022-12-13T01:54:29;0.30;99.90
41256;DHT22;26989;45.524;10.938;2022-12-13T01:57:02;0.30;99.90
41256;DHT22;26989;45.524;10.938;2022-12-13T01:59:31;0.40;99.90
41256;DHT22;26989;45.524;10.938;2022-12-13T02:01:58;0.40;99.90
41256;DHT22;26989;45.524;10.938;2022-12-13T02:04:36;0.50;99.90
41256;DHT22;26989;45.524;10.938;2022-12-13T02:07:13;0.60;99.90
41256;DHT22;26989;45.524;10.938;2022-12-13T02:09:54;0.60;99.90
41256;DHT22;26989;45.524;10.938;2022-12-13T02:12:25;0.70;99.90
41256;DHT22;26989;45.524;10.938;2022-12-13T02:15:00;0.80;99.90
41256;DHT22;26989;45.524;10.938;2022-12-13T02:31:41;1.60;99.90
41256;DHT22;26989;45.524;10.938;2022-12-13T02:34:35;1.60;99.90
41256;DHT22;26989;45.524;10.938;2022-12-13T02:37:11;1.50;99.90
41256;DHT22;26989;45.524;10.938;2022-12-13T02:39:56;1.40;99.90
41256;DHT22;26989;45.524;10.938;2022-12-13T02:42:48;1.30;99.90
41256;DHT22;26989;45.524;10.938;2022-12-13T02:45:22;1.20;99.90
41256;DHT22;26989;45.524;10.938;2022-12-13T02:47:53;1.20;99.90
41256;DHT22;26989;45.524;10.938;2022-12-13T02:50:23;1.10;99.90
41256;DHT22;26989;45.524;10.938;2022-12-13T02:52:52;1.10;99.90
41256;DHT22;26989;45.524;10.938;2022-12-13T02:55:20;1.00;99.90
41256;DHT22;26989;45.524;10.938;2022-12-13T02:57:53;0.90;99.90
41256;DHT22;26989;45.524;10.938;2022-12-13T03:00:28;0.90;99.90
41256;DHT22;26989;45.524;10.938;2022-12-13T03:03:19;0.70;99.90
41256;DHT22;26989;45.524;10.938;2022-12-13T03:17:53;0.60;99.90
41256;DHT22;26989;45.524;10.938;2022-12-13T03:20:24;0.60;99.90
41256;DHT22;26989;45.524;10.938;2022-12-13T03:22:52;0.70;99.90
41256;DHT22;26989;45.524;10.938;2022-12-13T03:25:20;0.70;99.90
41256;DHT22;26989;45.524;10.938;2022-12-13T03:27:59;0.70;99.90
41256;DHT22;26989;45.524;10.938;2022-12-13T03:30:28;0.80;99.90
41256;DHT22;26989;45.524;10.938;2022-12-13T03:32:55;0.90;99.90
41256;DHT22;26989;45.524;10.938;2022-12-13T03:35:22;0.90;99.90
41256;DHT22;26989;45.524;10.938;2022-12-13T03:37:50;1.00;99.90
41256;DHT22;26989;45.524;10.938;2022-12-13T03:40:17;1.00;99.90
41256;DHT22;26989;45.524;10.938;2022-12-13T03:42:45;1.10;99.90
41256;DHT22;26989;45.524;10.938;2022-12-13T03:45:12;1.10;99.90
41256;DHT22;26989;45.524;10.938;2022-12-13T03:47:40;1.10;99.90
41256;DHT22;26989;45.524;10.938;2022-12-13T03:50:07;1.10;99.90
41256;DHT22;26989;45.524;10.938;2022-12-13T03:52:58;1.20;99.90
41256;DHT22;26989;45.524;10.938;2022-12-13T03:55:25;1.10;99.90
41256;DHT22;26989;45.524;10.938;2022-12-13T03:57:52;1.20;99.90
41256;DHT22;26989;45.524;10.938;2022-12-13T04:00:19;1.20;99.90
41256;DHT22;26989;45.524;10.938;2022-12-13T04:02:46;1.20;99.90
41256;DHT22;26989;45.524;10.938;2022-12-13T04:05:14;1.20;99.90
41256;DHT22;26989;45.524;10.938;2022-12-13T04:07:42;1.30;99.90
41256;DHT22;26989;45.524;10.938;2022-12-13T04:10:14;1.30;99.90
41256;DHT22;26989;45.524;10.938;2022-12-13T04:12:52;1.40;99.90
41256;DHT22;26989;45.524;10.938;2022-12-13T04:15:38;1.40;99.90
41256;DHT22;26989;45.524;10.938;2022-12-13T04:18:06;1.30;99.90
41256;DHT22;26989;45.524;10.938;2022-12-13T04:20:33;1.30;99.90
41256;DHT22;26989;45.524;10.938;2022-12-13T04:23:00;1.30;99.90
41256;DHT22;26989;45.524;10.938;2022-12-13T04:25:36;1.30;99.90
41256;DHT22;26989;45.524;10.938;2022-12-13T04:28:03;1.30;99.90
41256;DHT22;26989;45.524;10.938;2022-12-13T04:30:30;1.30;99.90
41256;DHT22;26989;45.524;10.938;2022-12-13T04:32:57;1.40;99.90
41256;DHT22;26989;45.524;10.938;2022-12-13T04:35:25;1.40;99.90
41256;DHT22;26989;45.524;10.938;2022-12-13T04:37:52;1.40;99.90
41256;DHT22;26989;45.524;10.938;2022-12-13T04:40:18;1.40;99.90
41256;DHT22;26989;45.524;10.938;2022-12-13T04:42:47;1.40;99.90
41256;DHT22;26989;45.524;10.938;2022-12-13T04:45:20;1.40;99.90
41256;DHT22;26989;45.524;10.938;2022-12-13T04:47:48;1.40;99.90
41256;DHT22;26989;45.524;10.938;2022-12-13T04:50:15;1.40;99.90
41256;DHT22;26989;45.524;10.938;2022-12-13T04:52:43;1.50;99.90
41256;DHT22;26989;45.524;10.938;2022-12-13T04:55:10;1.50;99.90
41256;DHT22;26989;45.524;10.938;2022-12-13T04:57:38;1.40;99.90
41256;DHT22;26989;45.524;10.938;2022-12-13T05:00:07;1.50;99.90
41256;DHT22;26989;45.524;10.938;2022-12-13T05:02:35;1.50;99.90
41256;DHT22;26989;45.524;10.938;2022-12-13T05:05:02;1.50;99.90
41256;DHT22;26989;45.524;10.938;2022-12-13T05:07:29;1.40;99.90
41256;DHT22;26989;45.524;10.938;2022-12-13T05:09:56;1.40;99.90
41256;DHT22;26989;45.524;10.938;2022-12-13T05:12:23;1.40;99.90
41256;DHT22;26989;45.524;10.938;2022-12-13T05:14:51;1.40;99.90
41256;DHT22;26989;45.524;10.938;2022-12-13T05:17:19;1.30;99.90
41256;DHT22;26989;45.524;10.938;2022-12-13T05:19:46;1.30;99.90
41256;DHT22;26989;45.524;10.938;2022-12-13T05:22:13;1.20;99.90
41256;DHT22;26989;45.524;10.938;2022-12-13T05:24:47;1.20;99.90
41256;DHT22;26989;45.524;10.938;2022-12-13T05:27:14;1.10;99.90
41256;DHT22;26989;45.524;10.938;2022-12-13T05:29:52;1.10;99.90
41256;DHT22;26989;45.524;10.938;2022-12-13T05:32:32;1.10;99.90
41256;DHT22;26989;45.524;10.938;2022-12-13T05:35:14;1.10;99.90
41256;DHT22;26989;45.524;10.938;2022-12-13T05:37:49;1.20;99.90
41256;DHT22;26989;45.524;10.938;2022-12-13T05:40:25;1.30;99.90
41256;DHT22;26989;45.524;10.938;2022-12-13T05:42:52;1.30;99.90
41256;DHT22;26989;45.524;10.938;2022-12-13T05:45:28;1.40;99.90
41256;DHT22;26989;45.524;10.938;2022-12-13T05:47:55;1.40;99.90
41256;DHT22;26989;45.524;10.938;2022-12-13T05:50:23;1.40;99.90
41256;DHT22;26989;45.524;10.938;2022-12-13T05:52:51;1.50;99.90
41256;DHT22;26989;45.524;10.938;2022-12-13T05:55:18;1.50;99.90
41256;DHT22;26989;45.524;10.938;2022-12-13T05:57:45;1.50;99.90
41256;DHT22;26989;45.524;10.938;2022-12-13T06:00:17;1.50;99.90
41256;DHT22;26989;45.524;10.938;2022-12-13T06:02:56;1.50;99.90
41256;DHT22;26989;45.524;10.938;2022-12-13T06:05:27;1.50;99.90
41256;DHT22;26989;45.524;10.938;2022-12-13T06:07:55;1.50;99.90
41256;DHT22;26989;45.524;10.938;2022-12-13T06:10:26;1.50;99.90
41256;DHT22;26989;45.524;10.938;2022-12-13T06:13:04;1.50;99.90
41256;DHT22;26989;45.524;10.938;2022-12-13T06:15:52;1.50;99.90
41256;DHT22;26989;45.524;10.938;2022-12-13T06:18:29;1.50;99.90
41256;DHT22;26989;45.524;10.938;2022-12-13T06:21:01;1.60;99.90
41256;DHT22;26989;45.524;10.938;2022-12-13T06:23:29;1.60;99.90
41256;DHT22;26989;45.524;10.938;2022-12-13T06:25:57;1.50;99.90
41256;DHT22;26989;45.524;10.938;2022-12-13T06:28:24;1.50;99.90
41256;DHT22;26989;45.524;10.938;2022-12-13T06:30:53;1.50;99.90
41256;DHT22;26989;45.524;10.938;2022-12-13T06:33:20;1.50;99.90
41256;DHT22;26989;45.524;10.938;2022-12-13T06:35:50;1.50;99.90
41256;DHT22;26989;45.524;10.938;2022-12-13T06:38:18;1.50;99.90
41256;DHT22;26989;45.524;10.938;2022-12-13T06:41:11;1.50;99.90
41256;DHT22;26989;45.524;10.938;2022-12-13T06:43:46;1.50;99.90
41256;DHT22;26989;45.524;10.938;2022-12-13T06:46:17;1.50;99.90
41256;DHT22;26989;45.524;10.938;2022-12-13T06:48:45;1.60;99.90
41256;DHT22;26989;45.524;10.938;2022-12-13T06:51:16;1.60;99.90
41256;DHT22;26989;45.524;10.938;2022-12-13T06:53:57;1.50;99.90
41256;DHT22;26989;45.524;10.938;2022-12-13T06:56:27;1.50;99.90
41256;DHT22;26989;45.524;10.938;2022-12-13T06:58:56;1.50;99.90
41256;DHT22;26989;45.524;10.938;2022-12-13T07:01:28;1.50;99.90
41256;DHT22;26989;45.524;10.938;2022-12-13T07:04:04;1.50;99.90
41256;DHT22;26989;45.524;10.938;2022-12-13T07:06:51;1.50;99.90
41256;DHT22;26989;45.524;10.938;2022-12-13T07:09:19;1.60;99.90
41256;DHT22;26989;45.524;10.938;2022-12-13T07:11:46;1.60;99.90
41256;DHT22;26989;45.524;10.938;2022-12-13T07:14:18;1.60;99.90
41256;DHT22;26989;45.524;10.938;2022-12-13T07:16:45;1.60;99.90
41256;DHT22;26989;45.524;10.938;2022-12-13T07:19:12;1.60;99.90
41256;DHT22;26989;45.524;10.938;2022-12-13T07:21:50;1.60;99.90
41256;DHT22;26989;45.524;10.938;2022-12-13T07:24:33;1.60;99.90
41256;DHT22;26989;45.524;10.938;2022-12-13T07:27:01;1.60;99.90
41256;DHT22;26989;45.524;10.938;2022-12-13T07:29:29;1.50;99.90
41256;DHT22;26989;45.524;10.938;2022-12-13T07:31:56;1.50;99.90
41256;DHT22;26989;45.524;10.938;2022-12-13T07:34:27;1.50;99.90
41256;DHT22;26989;45.524;10.938;2022-12-13T07:36:54;1.50;99.90
41256;DHT22;26989;45.524;10.938;2022-12-13T07:39:23;1.50;99.90
41256;DHT22;26989;45.524;10.938;2022-12-13T07:41:55;1.50;99.90
41256;DHT22;26989;45.524;10.938;2022-12-13T07:44:23;1.60;99.90
41256;DHT22;26989;45.524;10.938;2022-12-13T07:46:50;1.60;99.90
41256;DHT22;26989;45.524;10.938;2022-12-13T07:49:18;1.70;99.90
41256;DHT22;26989;45.524;10.938;2022-12-13T07:51:45;1.60;99.90
41256;DHT22;26989;45.524;10.938;2022-12-13T07:54:12;1.60;99.90
41256;DHT22;26989;45.524;10.938;2022-12-13T07:56:40;1.60;99.90
41256;DHT22;26989;45.524;10.938;2022-12-13T07:59:16;1.50;99.90
41256;DHT22;26989;45.524;10.938;2022-12-13T08:01:54;1.50;99.90
41256;DHT22;26989;45.524;10.938;2022-12-13T08:04:35;1.50;99.90
41256;DHT22;26989;45.524;10.938;2022-12-13T08:07:07;1.60;99.90
41256;DHT22;26989;45.524;10.938;2022-12-13T08:09:42;1.70;99.90
41256;DHT22;26989;45.524;10.938;2022-12-13T08:12:18;1.70;99.90
41256;DHT22;26989;45.524;10.938;2022-12-13T08:14:48;1.80;99.90
41256;DHT22;26989;45.524;10.938;2022-12-13T08:17:19;1.70;99.90
41256;DHT22;26989;45.524;10.938;2022-12-13T08:19:46;1.90;99.90
41256;DHT22;26989;45.524;10.938;2022-12-13T08:22:16;2.00;99.90
41256;DHT22;26989;45.524;10.938;2022-12-13T08:24:57;2.10;99.90
41256;DHT22;26989;45.524;10.938;2022-12-13T08:27:39;2.10;99.90
41256;DHT22;26989;45.524;10.938;2022-12-13T08:30:11;2.00;99.90
41256;DHT22;26989;45.524;10.938;2022-12-13T08:32:52;2.10;99.90
41256;DHT22;26989;45.524;10.938;2022-12-13T08:35:19;2.10;99.90
41256;DHT22;26989;45.524;10.938;2022-12-13T08:37:46;2.20;99.90
41256;DHT22;26989;45.524;10.938;2022-12-13T08:40:27;2.30;99.90
41256;DHT22;26989;45.524;10.938;2022-12-13T08:42:55;2.30;99.90
41256;DHT22;26989;45.524;10.938;2022-12-13T08:45:39;2.50;99.90
41256;DHT22;26989;45.524;10.938;2022-12-13T08:48:08;2.50;99.90
41256;DHT22;26989;45.524;10.938;2022-12-13T08:50:42;2.40;99.90
41256;DHT22;26989;45.524;10.938;2022-12-13T08:53:38;2.40;99.90
41256;DHT22;26989;45.524;10.938;2022-12-13T08:56:10;2.50;99.90
41256;DHT22;26989;45.524;10.938;2022-12-13T08:58:38;2.40;99.90
41256;DHT22;26989;45.524;10.938;2022-12-13T09:01:19;2.50;99.90
41256;DHT22;26989;45.524;10.938;2022-12-13T09:03:46;2.40;99.90
41256;DHT22;26989;45.524;10.938;2022-12-13T09:06:15;2.40;99.90
41256;DHT22;26989;45.524;10.938;2022-12-13T09:08:43;2.40;99.90
41256;DHT22;26989;45.524;10.938;2022-12-13T09:11:18;2.40;99.90
41256;DHT22;26989;45.524;10.938;2022-12-13T09:14:02;2.40;99.90
41256;DHT22;26989;45.524;10.938;2022-12-13T09:16:29;2.40;99.90
41256;DHT22;26989;45.524;10.938;2022-12-13T09:19:02;2.40;99.90
41256;DHT22;26989;45.524;10.938;2022-12-13T09:21:51;2.40;99.90
41256;DHT22;26989;45.524;10.938;2022-12-13T09:24:27;2.60;99.90
41256;DHT22;26989;45.524;10.938;2022-12-13T09:27:03;2.60;99.90
41256;DHT22;26989;45.524;10.938;2022-12-13T09:29:36;2.70;99.90
41256;DHT22;26989;45.524;10.938;2022-12-13T09:32:03;2.80;99.90
41256;DHT22;26989;45.524;10.938;2022-12-13T09:34:30;2.90;99.90
41256;DHT22;26989;45.524;10.938;2022-12-13T09:36:59;2.90;99.90
41256;DHT22;26989;45.524;10.938;2022-12-13T09:39:28;2.90;99.90
41256;DHT22;26989;45.524;10.938;2022-12-13T09:41:56;2.90;99.90
41256;DHT22;26989;45.524;10.938;2022-12-13T09:44:34;3.00;99.90
41256;DHT22;26989;45.524;10.938;2022-12-13T09:47:16;3.10;99.90
41256;DHT22;26989;45.524;10.938;2022-12-13T09:49:50;3.20;99.90
41256;DHT22;26989;45.524;10.938;2022-12-13T09:52:38;3.20;99.90
41256;DHT22;26989;45.524;10.938;2022-12-13T09:57:48;3.40;99.90
41256;DHT22;26989;45.524;10.938;2022-12-13T10:00:20;3.20;99.90
41256;DHT22;26989;45.524;10.938;2022-12-13T10:02:55;3.30;99.90
41256;DHT22;26989;45.524;10.938;2022-12-13T10:05:35;3.50;99.90
41256;DHT22;26989;45.524;10.938;2022-12-13T10:10:32;3.80;99.90
41256;DHT22;26989;45.524;10.938;2022-12-13T10:15:37;4.00;99.90
41256;DHT22;26989;45.524;10.938;2022-12-13T10:18:07;4.00;99.90
41256;DHT22;26989;45.524;10.938;2022-12-13T10:20:36;4.00;99.90
41256;DHT22;26989;45.524;10.938;2022-12-13T10:23:03;4.10;99.90
41256;DHT22;26989;45.524;10.938;2022-12-13T10:25:53;4.10;99.90
41256;DHT22;26989;45.524;10.938;2022-12-13T10:28:31;4.10;99.90
41256;DHT22;26989;45.524;10.938;2022-12-13T10:30:59;4.10;99.90
41256;DHT22;26989;45.524;10.938;2022-12-13T10:33:32;4.10;99.90
41256;DHT22;26989;45.524;10.938;2022-12-13T10:36:06;4.10;99.90
41256;DHT22;26989;45.524;10.938;2022-12-13T10:38:40;4.20;99.90
41256;DHT22;26989;45.524;10.938;2022-12-13T10:41:30;4.20;99.90
41256;DHT22;26989;45.524;10.938;2022-12-13T10:46:46;4.50;99.90
41256;DHT22;26989;45.524;10.938;2022-12-13T10:49:16;4.60;99.90
41256;DHT22;26989;45.524;10.938;2022-12-13T10:51:44;4.50;99.90
41256;DHT22;26989;45.524;10.938;2022-12-13T10:54:29;4.20;99.90
41256;DHT22;26989;45.524;10.938;2022-12-13T10:57:13;4.10;99.90
41256;DHT22;26989;45.524;10.938;2022-12-13T10:59:42;4.10;99.90
41256;DHT22;26989;45.524;10.938;2022-12-13T11:04:56;4.20;99.90
41256;DHT22;26989;45.524;10.938;2022-12-13T11:07:32;4.30;99.90
41256;DHT22;26989;45.524;10.938;2022-12-13T11:10:23;4.30;99.90
41256;DHT22;26989;45.524;10.938;2022-12-13T11:13:02;4.20;99.90
41256;DHT22;26989;45.524;10.938;2022-12-13T11:15:33;4.30;99.90
41256;DHT22;26989;45.524;10.938;2022-12-13T11:18:18;4.30;99.90
41256;DHT22;26989;45.524;10.938;2022-12-13T11:20:56;4.30;99.90
41256;DHT22;26989;45.524;10.938;2022-12-13T11:23:32;4.30;99.90
41256;DHT22;26989;45.524;10.938;2022-12-13T11:26:07;4.20;99.90
41256;DHT22;26989;45.524;10.938;2022-12-13T11:31:45;4.50;99.90
41256;DHT22;26989;45.524;10.938;2022-12-13T11:40:10;4.60;99.90
41256;DHT22;26989;45.524;10.938;2022-12-13T11:42:49;4.60;99.90
41256;DHT22;26989;45.524;10.938;2022-12-13T11:48:24;4.60;99.90
41256;DHT22;26989;45.524;10.938;2022-12-13T11:50:55;4.60;99.90
41256;DHT22;26989;45.524;10.938;2022-12-13T11:53:41;4.60;99.90
41256;DHT22;26989;45.524;10.938;2022-12-13T11:58:50;4.60;99.90
41256;DHT22;26989;45.524;10.938;2022-12-13T12:02:01;4.60;99.90
41256;DHT22;26989;45.524;10.938;2022-12-13T12:04:38;4.60;99.90
41256;DHT22;26989;45.524;10.938;2022-12-13T12:07:18;4.50;99.90
41256;DHT22;26989;45.524;10.938;2022-12-13T12:12:56;4.40;99.90
41256;DHT22;26989;45.524;10.938;2022-12-13T12:15:27;4.30;99.90
41256;DHT22;26989;45.524;10.938;2022-12-13T12:17:55;4.40;99.90
41256;DHT22;26989;45.524;10.938;2022-12-13T12:26:09;4.40;99.90
41256;DHT22;26989;45.524;10.938;2022-12-13T12:29:08;4.40;99.90
41256;DHT22;26989;45.524;10.938;2022-12-13T12:37:08;4.30;99.90
41256;DHT22;26989;45.524;10.938;2022-12-13T12:51:58;4.30;99.90
41256;DHT22;26989;45.524;10.938;2022-12-13T13:08:04;4.20;99.90
41256;DHT22;26989;45.524;10.938;2022-12-13T13:10:32;4.20;99.90
41256;DHT22;26989;45.524;10.938;2022-12-13T13:13:00;4.30;99.90
41256;DHT22;26989;45.524;10.938;2022-12-13T13:26:30;4.00;99.90
41256;DHT22;26989;45.524;10.938;2022-12-13T13:34:33;3.90;99.90
41256;DHT22;26989;45.524;10.938;2022-12-13T13:37:03;3.90;99.90
41256;DHT22;26989;45.524;10.938;2022-12-13T14:01:09;3.60;99.90
41256;DHT22;26989;45.524;10.938;2022-12-13T14:29:27;3.60;99.90
41256;DHT22;26989;45.524;10.938;2022-12-13T14:31:55;3.60;99.90
41256;DHT22;26989;45.524;10.938;2022-12-13T14:34:32;3.60;99.90
41256;DHT22;26989;45.524;10.938;2022-12-13T14:37:26;3.60;99.90
41256;DHT22;26989;45.524;10.938;2022-12-13T14:39:54;3.60;99.90
41256;DHT22;26989;45.524;10.938;2022-12-13T14:42:29;3.50;99.90
41256;DHT22;26989;45.524;10.938;2022-12-13T14:45:22;3.50;99.90
41256;DHT22;26989;45.524;10.938;2022-12-13T14:47:52;3.50;99.90
41256;DHT22;26989;45.524;10.938;2022-12-13T14:50:23;3.50;99.90
41256;DHT22;26989;45.524;10.938;2022-12-13T14:52:58;3.50;99.90
41256;DHT22;26989;45.524;10.938;2022-12-13T14:56:06;3.50;99.90
41256;DHT22;26989;45.524;10.938;2022-12-13T15:02:03;3.40;99.90
41256;DHT22;26989;45.524;10.938;2022-12-13T15:04:33;3.40;99.90
41256;DHT22;26989;45.524;10.938;2022-12-13T15:07:16;3.40;99.90
41256;DHT22;26989;45.524;10.938;2022-12-13T15:09:54;3.40;99.90
41256;DHT22;26989;45.524;10.938;2022-12-13T15:12:22;3.30;99.90
41256;DHT22;26989;45.524;10.938;2022-12-13T15:15:03;3.30;99.90
41256;DHT22;26989;45.524;10.938;2022-12-13T15:17:34;3.30;99.90
41256;DHT22;26989;45.524;10.938;2022-12-13T15:23:05;3.30;99.90
41256;DHT22;26989;45.524;10.938;2022-12-13T15:25:39;3.30;99.90
41256;DHT22;26989;45.524;10.938;2022-12-13T15:28:11;3.20;99.90
41256;DHT22;26989;45.524;10.938;2022-12-13T15:30:47;3.20;99.90
41256;DHT22;26989;45.524;10.938;2022-12-13T15:33:21;3.20;99.90
41256;DHT22;26989;45.524;10.938;2022-12-13T15:38:35;3.10;99.90
41256;DHT22;26989;45.524;10.938;2022-12-13T15:41:03;3.10;99.90
41256;DHT22;26989;45.524;10.938;2022-12-13T15:43:44;3.10;99.90
41256;DHT22;26989;45.524;10.938;2022-12-13T15:46:29;3.00;99.90
41256;DHT22;26989;45.524;10.938;2022-12-13T15:49:19;3.00;99.90
41256;DHT22;26989;45.524;10.938;2022-12-13T15:52:05;3.00;99.90
41256;DHT22;26989;45.524;10.938;2022-12-13T15:54:33;3.00;99.90
41256;DHT22;26989;45.524;10.938;2022-12-13T15:57:15;3.00;99.90
41256;DHT22;26989;45.524;10.938;2022-12-13T15:59:47;2.90;99.90
41256;DHT22;26989;45.524;10.938;2022-12-13T16:02:20;2.90;99.90
41256;DHT22;26989;45.524;10.938;2022-12-13T16:04:49;2.90;99.90
41256;DHT22;26989;45.524;10.938;2022-12-13T16:07:35;2.90;99.90
41256;DHT22;26989;45.524;10.938;2022-12-13T16:10:06;2.90;99.90
41256;DHT22;26989;45.524;10.938;2022-12-13T16:12:42;3.00;99.90
41256;DHT22;26989;45.524;10.938;2022-12-13T16:15:19;2.90;99.90
41256;DHT22;26989;45.524;10.938;2022-12-13T16:18:17;2.90;99.90
41256;DHT22;26989;45.524;10.938;2022-12-13T16:20:53;2.90;99.90
41256;DHT22;26989;45.524;10.938;2022-12-13T16:23:20;2.80;99.90
41256;DHT22;26989;45.524;10.938;2022-12-13T16:25:53;2.70;99.90
41256;DHT22;26989;45.524;10.938;2022-12-13T16:28:20;2.70;99.90
41256;DHT22;26989;45.524;10.938;2022-12-13T16:33:23;2.70;99.90
41256;DHT22;26989;45.524;10.938;2022-12-13T16:35:54;2.70;99.90
41256;DHT22;26989;45.524;10.938;2022-12-13T16:38:21;2.70;99.90
41256;DHT22;26989;45.524;10.938;2022-12-13T16:41:01;2.80;99.90
41256;DHT22;26989;45.524;10.938;2022-12-13T16:43:39;2.80;99.90
41256;DHT22;26989;45.524;10.938;2022-12-13T16:46:24;2.70;99.90
41256;DHT22;26989;45.524;10.938;2022-12-13T16:49:20;2.70;99.90
41256;DHT22;26989;45.524;10.938;2022-12-13T16:52:16;2.80;99.90
41256;DHT22;26989;45.524;10.938;2022-12-13T16:54:53;2.80;99.90
41256;DHT22;26989;45.524;10.938;2022-12-13T16:57:59;2.80;99.90
41256;DHT22;26989;45.524;10.938;2022-12-13T17:00:27;2.80;99.90
41256;DHT22;26989;45.524;10.938;2022-12-13T17:02:57;2.80;99.90
41256;DHT22;26989;45.524;10.938;2022-12-13T17:05:25;2.70;99.90
41256;DHT22;26989;45.524;10.938;2022-12-13T17:07:53;2.70;99.90
41256;DHT22;26989;45.524;10.938;2022-12-13T17:10:21;2.70;99.90
41256;DHT22;26989;45.524;10.938;2022-12-13T17:12:49;2.60;99.90
41256;DHT22;26989;45.524;10.938;2022-12-13T17:15:28;2.70;99.90
41256;DHT22;26989;45.524;10.938;2022-12-13T17:17:57;2.70;99.90
41256;DHT22;26989;45.524;10.938;2022-12-13T17:20:44;2.60;99.90
41256;DHT22;26989;45.524;10.938;2022-12-13T17:23:23;2.60;99.90
41256;DHT22;26989;45.524;10.938;2022-12-13T17:26:12;2.70;99.90
41256;DHT22;26989;45.524;10.938;2022-12-13T17:31:41;2.80;99.90
41256;DHT22;26989;45.524;10.938;2022-12-13T17:34:31;2.80;99.90
41256;DHT22;26989;45.524;10.938;2022-12-13T17:37:02;2.80;99.90
41256;DHT22;26989;45.524;10.938;2022-12-13T17:42:28;2.70;99.90
41256;DHT22;26989;45.524;10.938;2022-12-13T17:45:24;2.80;99.90
41256;DHT22;26989;45.524;10.938;2022-12-13T17:47:54;2.70;99.90
41256;DHT22;26989;45.524;10.938;2022-12-13T17:50:39;2.60;99.90
41256;DHT22;26989;45.524;10.938;2022-12-13T17:53:23;2.60;99.90
41256;DHT22;26989;45.524;10.938;2022-12-13T17:56:09;2.60;99.90
41256;DHT22;26989;45.524;10.938;2022-12-13T17:58:57;2.60;99.90
41256;DHT22;26989;45.524;10.938;2022-12-13T18:01:50;2.60;99.90
41256;DHT22;26989;45.524;10.938;2022-12-13T18:04:34;2.60;99.90
41256;DHT22;26989;45.524;10.938;2022-12-13T18:07:15;2.60;99.90
41256;DHT22;26989;45.524;10.938;2022-12-13T18:09:58;2.50;99.90
41256;DHT22;26989;45.524;10.938;2022-12-13T18:13:05;2.50;99.90
41256;DHT22;26989;45.524;10.938;2022-12-13T18:15:51;2.50;99.90
41256;DHT22;26989;45.524;10.938;2022-12-13T18:18:43;2.50;99.90
41256;DHT22;26989;45.524;10.938;2022-12-13T18:21:35;2.50;99.90
41256;DHT22;26989;45.524;10.938;2022-12-13T18:24:12;2.40;99.90
41256;DHT22;26989;45.524;10.938;2022-12-13T18:40:38;2.40;99.90
41256;DHT22;26989;45.524;10.938;2022-12-13T18:49:52;2.40;99.90
41256;DHT22;26989;45.524;10.938;2022-12-13T18:58:27;2.50;99.90
41256;DHT22;26989;45.524;10.938;2022-12-13T19:09:57;2.50;99.90
41256;DHT22;26989;45.524;10.938;2022-12-13T19:12:43;2.50;99.90
41256;DHT22;26989;45.524;10.938;2022-12-13T19:15:24;2.50;99.90
41256;DHT22;26989;45.524;10.938;2022-12-13T19:18:06;2.50;99.90
41256;DHT22;26989;45.524;10.938;2022-12-13T19:23:53;2.50;99.90
41256;DHT22;26989;45.524;10.938;2022-12-13T19:32:58;2.50;99.90
41256;DHT22;26989;45.524;10.938;2022-12-13T19:35:40;2.50;99.90
41256;DHT22;26989;45.524;10.938;2022-12-13T19:41:06;2.50;99.90
41256;DHT22;26989;45.524;10.938;2022-12-13T19:46:39;2.50;99.90
41256;DHT22;26989;45.524;10.938;2022-12-13T19:49:17;2.50;99.90
41256;DHT22;26989;45.524;10.938;2022-12-13T19:51:57;2.50;99.90
41256;DHT22;26989;45.524;10.938;2022-12-13T19:54:43;2.60;99.90
41256;DHT22;26989;45.524;10.938;2022-12-13T19:57:20;2.60;99.90
41256;DHT22;26989;45.524;10.938;2022-12-13T20:00:03;2.60;99.90
41256;DHT22;26989;45.524;10.938;2022-12-13T20:02:42;2.60;99.90